createdAt,value
2023-04-20T00:01:09.126Z,47.38
2023-04-20T00:03:35.774Z,47.11
2023-04-20T00:06:03.089Z,47.53
2023-04-20T00:08:29.543Z,47.81
2023-04-20T00:10:56.083Z,47.60
2023-04-20T00:13:22.575Z,47.34
2023-04-20T00:15:49.132Z,46.99
2023-04-20T00:18:16.048Z,46.84
2023-04-20T00:20:42.503Z,47.34
2023-04-20T00:23:09.009Z,47.99
2023-04-20T00:25:35.590Z,47.50
2023-04-20T00:28:02.073Z,47.44
2023-04-20T00:30:28.618Z,46.47
2023-04-20T00:32:55.334Z,46.57
2023-04-20T00:35:22.046Z,45.51
2023-04-20T00:37:48.478Z,45.76
2023-04-20T00:40:14.979Z,45.55
2023-04-20T00:42:42.173Z,45.18
2023-04-20T00:45:09.701Z,45.24
2023-04-20T00:47:36.261Z,44.73
2023-04-20T00:50:03.583Z,44.54
2023-04-20T00:52:32.136Z,44.67
2023-04-20T00:54:58.695Z,44.78
2023-04-20T00:57:26.425Z,44.82
2023-04-20T00:59:52.928Z,44.39
2023-04-20T01:02:19.494Z,44.43
2023-04-20T01:04:47.663Z,44.36
2023-04-20T01:07:14.143Z,44.03
2023-04-20T01:09:40.648Z,44.65
2023-04-20T01:12:09.506Z,44.68
2023-04-20T01:14:36.086Z,45.10
2023-04-20T01:17:05.762Z,44.43
2023-04-20T01:19:33.398Z,45.11
2023-04-20T01:21:59.909Z,45.09
2023-04-20T01:24:27.616Z,44.95
2023-04-20T01:26:54.158Z,44.61
2023-04-20T01:29:20.988Z,44.28
2023-04-20T01:31:47.631Z,44.33
2023-04-20T01:34:15.143Z,44.27
2023-04-20T01:36:41.680Z,44.65
2023-04-20T01:39:08.711Z,44.70
2023-04-20T01:41:35.472Z,44.42
2023-04-20T01:44:01.989Z,44.61
2023-04-20T01:46:28.543Z,44.56
2023-04-20T01:48:55.173Z,44.27
2023-04-20T01:51:22.195Z,44.69
2023-04-20T01:53:48.691Z,44.25
2023-04-20T01:56:15.414Z,44.40
2023-04-20T01:58:41.881Z,44.93
2023-04-20T02:01:08.489Z,45.12
2023-04-20T02:03:35.327Z,45.14
2023-04-20T02:06:02.035Z,44.90
2023-04-20T02:08:28.478Z,45.55
2023-04-20T02:10:54.978Z,45.24
2023-04-20T02:13:21.504Z,45.50
2023-04-20T02:15:49.792Z,45.87
2023-04-20T02:18:16.333Z,45.79
2023-04-20T02:20:44.493Z,45.64
2023-04-20T02:23:12.617Z,45.33
2023-04-20T02:25:39.148Z,45.65
2023-04-20T02:28:05.745Z,45.50
2023-04-20T02:30:32.210Z,45.67
2023-04-20T02:32:59.473Z,45.79
2023-04-20T02:35:26.219Z,45.52
2023-04-20T02:37:52.781Z,46.11
2023-04-20T02:40:19.315Z,46.14
2023-04-20T02:42:45.922Z,45.63
2023-04-20T02:45:12.374Z,45.93
2023-04-20T02:47:38.883Z,46.10
2023-04-20T02:50:06.648Z,46.58
2023-04-20T02:52:33.205Z,47.10
2023-04-20T02:55:01.654Z,46.59
2023-04-20T02:57:28.269Z,46.79
2023-04-20T02:59:54.783Z,47.55
2023-04-20T03:02:21.536Z,47.21
2023-04-20T03:04:48.274Z,47.48
2023-04-20T03:07:16.581Z,47.56
2023-04-20T03:09:43.370Z,47.78
2023-04-20T03:12:11.771Z,48.53
2023-04-20T03:14:38.211Z,48.24
2023-04-20T03:17:04.799Z,48.11
2023-04-20T03:19:31.314Z,47.14
2023-04-20T03:21:57.850Z,47.71
2023-04-20T03:24:24.339Z,48.54
2023-04-20T03:26:50.846Z,48.49
2023-04-20T03:29:17.573Z,48.85
2023-04-20T03:31:50.171Z,48.45
2023-04-20T03:34:16.868Z,48.83
2023-04-20T03:36:43.490Z,49.20
2023-04-20T03:39:10.060Z,49.10
2023-04-20T03:41:44.003Z,49.43
2023-04-20T03:44:10.904Z,49.44
2023-04-20T03:46:37.628Z,49.04
2023-04-20T03:49:04.307Z,49.74
2023-04-20T03:51:32.279Z,49.91
2023-04-20T03:53:58.804Z,50.66
2023-04-20T03:56:27.167Z,50.93
2023-04-20T03:58:53.647Z,50.89
2023-04-20T04:01:20.176Z,50.53
2023-04-20T04:03:46.904Z,50.24
2023-04-20T04:06:13.550Z,50.02
2023-04-20T04:08:42.996Z,50.67
2023-04-20T04:11:09.713Z,50.47
2023-04-20T04:13:36.249Z,51.29
2023-04-20T04:16:02.820Z,51.33
2023-04-20T04:18:32.323Z,51.50
2023-04-20T04:20:59.266Z,52.12
2023-04-20T04:23:26.256Z,52.18
2023-04-20T04:25:52.800Z,52.01
2023-04-20T04:28:19.554Z,51.25
2023-04-20T04:30:47.336Z,52.23
2023-04-20T04:33:14.669Z,51.93
2023-04-20T04:35:41.587Z,52.36
2023-04-20T04:38:08.191Z,51.99
2023-04-20T04:40:34.760Z,52.33
2023-04-20T04:43:01.307Z,52.05
2023-04-20T04:45:27.919Z,52.40
2023-04-20T04:47:54.408Z,52.17
2023-04-20T04:50:21.802Z,52.37
2023-04-20T04:52:48.272Z,52.83
2023-04-20T04:55:16.345Z,52.16
2023-04-20T04:57:43.188Z,52.69
2023-04-20T05:00:11.868Z,52.07
2023-04-20T05:02:38.785Z,52.21
2023-04-20T05:05:07.526Z,52.39
2023-04-20T05:07:36.117Z,52.38
2023-04-20T05:10:02.621Z,52.71
2023-04-20T05:12:29.107Z,52.60
2023-04-20T05:14:55.605Z,53.06
2023-04-20T05:17:22.080Z,52.32
2023-04-20T05:19:48.586Z,52.93
2023-04-20T05:22:15.127Z,52.84
2023-04-20T05:24:42.427Z,52.97
2023-04-20T05:27:09.434Z,54.06
2023-04-20T05:29:36.232Z,53.87
2023-04-20T05:32:02.765Z,53.68
2023-04-20T05:34:29.589Z,53.25
2023-04-20T05:36:58.031Z,53.84
2023-04-20T05:39:24.781Z,53.86
2023-04-20T05:41:51.424Z,53.73
2023-04-20T05:44:17.922Z,54.57
2023-04-20T05:46:44.454Z,54.41
2023-04-20T05:49:11.004Z,54.97
2023-04-20T05:51:37.499Z,55.03
2023-04-20T05:54:04.225Z,54.71
2023-04-20T05:56:30.777Z,54.57
2023-04-20T05:58:58.218Z,54.22
2023-04-20T06:01:24.746Z,53.94
2023-04-20T06:03:51.530Z,53.73
2023-04-20T06:06:18.164Z,54.70
2023-04-20T06:08:44.698Z,54.34
2023-04-20T06:11:11.244Z,54.69
2023-04-20T06:13:37.779Z,54.71
2023-04-20T06:16:09.325Z,54.90
2023-04-20T06:18:37.070Z,55.07
2023-04-20T06:21:04.231Z,55.33
2023-04-20T06:23:30.775Z,56.25
2023-04-20T06:25:57.259Z,56.61
2023-04-20T06:28:23.690Z,55.78
2023-04-20T06:30:50.297Z,55.11
2023-04-20T06:33:17.459Z,55.67
2023-04-20T06:35:44.448Z,55.01
2023-04-20T06:38:11.083Z,54.79
2023-04-20T06:40:37.714Z,54.78
2023-04-20T06:43:04.320Z,54.77
2023-04-20T06:45:32.817Z,54.13
2023-04-20T06:48:00.715Z,54.41
2023-04-20T06:50:27.405Z,54.10
2023-04-20T06:52:53.999Z,54.38
2023-04-20T06:55:20.957Z,54.68
2023-04-20T06:57:47.537Z,54.80
2023-04-20T07:00:14.945Z,54.93
2023-04-20T07:02:50.174Z,55.53
2023-04-20T07:05:18.427Z,55.25
2023-04-20T07:07:45.300Z,54.56
2023-04-20T07:10:13.981Z,54.81
2023-04-20T07:12:43.486Z,55.00
2023-04-20T07:15:11.051Z,54.82
2023-04-20T07:17:37.746Z,54.65
2023-04-20T07:20:08.643Z,53.99
2023-04-20T07:22:36.938Z,53.75
2023-04-20T07:25:08.881Z,55.23
2023-04-20T07:27:40.781Z,55.03
2023-04-20T07:30:10.544Z,54.97
2023-04-20T07:32:39.612Z,55.36
2023-04-20T07:35:07.156Z,54.74
2023-04-20T07:37:34.636Z,54.06
2023-04-20T07:40:01.919Z,53.87
2023-04-20T07:42:29.620Z,54.44
2023-04-20T07:44:56.295Z,54.93
2023-04-20T07:47:22.967Z,54.18
2023-04-20T07:49:49.807Z,54.30
2023-04-20T07:52:17.426Z,54.14
2023-04-20T07:54:47.214Z,53.63
2023-04-20T07:57:13.716Z,53.14
2023-04-20T07:59:40.766Z,52.75
2023-04-20T08:02:08.465Z,51.65
2023-04-20T08:04:40.391Z,50.71
2023-04-20T08:07:07.128Z,50.74
2023-04-20T08:09:33.680Z,50.45
2023-04-20T08:12:00.616Z,51.06
2023-04-20T08:14:27.647Z,50.01
2023-04-20T08:16:54.232Z,50.72
2023-04-20T08:19:21.038Z,50.20
2023-04-20T08:21:47.620Z,49.78
2023-04-20T08:24:14.396Z,50.33
2023-04-20T08:26:43.248Z,50.87
2023-04-20T08:29:09.892Z,50.78
2023-04-20T08:31:37.363Z,50.59
2023-04-20T08:34:03.983Z,50.65
2023-04-20T08:36:30.506Z,50.65
2023-04-20T08:39:07.714Z,49.95
2023-04-20T08:41:34.304Z,49.84
2023-04-20T08:44:00.889Z,49.92
2023-04-20T08:46:28.622Z,50.02
2023-04-20T08:48:56.872Z,50.38
2023-04-20T08:51:24.411Z,50.31
2023-04-20T08:53:51.641Z,48.83
2023-04-20T08:56:18.345Z,48.43
2023-04-20T08:58:44.889Z,48.95
2023-04-20T09:01:15.556Z,49.49
2023-04-20T09:03:44.448Z,48.92
2023-04-20T09:06:18.722Z,48.52
2023-04-20T09:08:46.621Z,48.70
2023-04-20T09:11:27.141Z,48.40
2023-04-20T09:14:14.756Z,47.46
2023-04-20T09:17:00.601Z,47.19
2023-04-20T09:19:30.820Z,47.94
2023-04-20T09:22:03.590Z,48.05
2023-04-20T09:24:39.697Z,48.38
2023-04-20T09:27:17.629Z,48.70
2023-04-20T09:29:55.896Z,48.52
2023-04-20T09:32:27.979Z,46.84
2023-04-20T09:34:55.300Z,47.09
2023-04-20T09:37:22.876Z,47.70
2023-04-20T09:39:50.341Z,48.00
2023-04-20T09:42:17.645Z,47.74
2023-04-20T09:44:44.446Z,47.05
2023-04-20T09:47:21.216Z,47.52
2023-04-20T09:49:47.811Z,47.81
2023-04-20T09:52:19.214Z,47.73
2023-04-20T09:54:46.258Z,46.97
2023-04-20T09:57:14.386Z,47.34
2023-04-20T09:59:46.957Z,47.74
2023-04-20T10:02:17.454Z,47.51
2023-04-20T10:04:57.892Z,47.49
2023-04-20T10:07:30.326Z,47.92
2023-04-20T10:10:13.628Z,47.18
2023-04-20T10:12:55.101Z,46.31
2023-04-20T10:15:24.210Z,46.24
2023-04-20T10:17:51.028Z,46.85
2023-04-20T10:20:28.703Z,46.56
2023-04-20T10:23:10.204Z,47.04
2023-04-20T10:25:37.541Z,46.94
2023-04-20T10:28:09.406Z,47.85
2023-04-20T10:30:37.944Z,48.08
2023-04-20T10:33:09.885Z,47.53
2023-04-20T10:35:58.855Z,47.08
2023-04-20T10:38:35.947Z,47.09
2023-04-20T10:41:10.557Z,47.69
2023-04-20T10:43:43.149Z,46.53
2023-04-20T10:46:22.243Z,46.72
2023-04-20T10:48:57.084Z,46.26
2023-04-20T10:51:24.909Z,46.63
2023-04-20T10:54:18.636Z,46.61
2023-04-20T10:56:53.234Z,47.00
2023-04-20T10:59:23.351Z,46.59
2023-04-20T11:01:52.228Z,46.17
2023-04-20T11:04:19.361Z,45.91
2023-04-20T11:06:50.761Z,46.17
2023-04-20T11:09:24.691Z,46.54
2023-04-20T11:12:08.018Z,43.67
2023-04-20T11:14:40.250Z,44.98
2023-04-20T11:17:06.909Z,45.43
2023-04-20T11:19:36.965Z,44.54
2023-04-20T11:22:06.353Z,44.63
2023-04-20T11:24:34.247Z,44.82
2023-04-20T11:27:02.244Z,45.02
2023-04-20T11:29:35.412Z,44.47
2023-04-20T11:32:07.006Z,44.83
2023-04-20T11:34:36.486Z,44.09
2023-04-20T11:37:13.710Z,44.55
2023-04-20T11:39:41.138Z,45.18
2023-04-20T11:42:07.762Z,44.89
2023-04-20T11:44:36.447Z,44.82
2023-04-20T11:47:03.777Z,44.71
2023-04-20T11:49:30.744Z,44.82
2023-04-20T11:51:58.090Z,45.23
2023-04-20T11:54:25.311Z,45.10
2023-04-20T11:56:51.875Z,44.94
2023-04-20T11:59:20.132Z,45.25
2023-04-20T12:01:47.665Z,44.89
2023-04-20T12:04:15.329Z,43.74
2023-04-20T12:06:42.402Z,43.74
2023-04-20T12:09:09.167Z,42.52
2023-04-20T12:11:35.646Z,42.95
2023-04-20T12:14:02.133Z,43.83
2023-04-20T12:16:28.679Z,43.99
2023-04-20T12:18:55.324Z,44.79
2023-04-20T12:21:22.233Z,43.86
2023-04-20T12:23:51.073Z,44.11
2023-04-20T12:26:17.848Z,44.50
2023-04-20T12:28:45.332Z,43.92
2023-04-20T12:31:12.079Z,44.21
2023-04-20T12:33:38.687Z,44.04
2023-04-20T12:36:05.976Z,44.06
2023-04-20T12:38:32.491Z,42.04
2023-04-20T12:40:58.982Z,43.28
2023-04-20T12:43:25.593Z,43.93
2023-04-20T12:45:52.136Z,44.09
2023-04-20T12:48:18.683Z,43.74
2023-04-20T12:50:45.552Z,43.98
2023-04-20T12:53:12.037Z,43.81
2023-04-20T12:55:38.588Z,43.25
2023-04-20T12:58:05.146Z,42.95
2023-04-20T13:00:31.679Z,42.19
2023-04-20T13:02:58.285Z,42.77
2023-04-20T13:05:24.873Z,42.95
2023-04-20T13:07:51.809Z,42.73
2023-04-20T13:10:18.422Z,43.34
2023-04-20T13:12:44.859Z,42.78
2023-04-20T13:15:13.024Z,42.92
2023-04-20T13:17:39.595Z,41.88
2023-04-20T13:20:07.750Z,41.42
2023-04-20T13:22:37.083Z,42.43
2023-04-20T13:25:06.358Z,42.09
2023-04-20T13:27:33.004Z,41.68
2023-04-20T13:29:59.612Z,42.46
2023-04-20T13:32:26.574Z,42.20
2023-04-20T13:34:53.152Z,42.40
2023-04-20T13:37:19.936Z,41.62
2023-04-20T13:39:46.480Z,40.74
2023-04-20T13:42:12.999Z,41.33
2023-04-20T13:44:39.488Z,41.18
2023-04-20T13:47:05.994Z,41.50
2023-04-20T13:49:32.479Z,41.35
2023-04-20T13:51:59.095Z,40.45
2023-04-20T13:54:25.847Z,41.42
2023-04-20T13:56:52.370Z,41.91
2023-04-20T13:59:18.801Z,42.00
2023-04-20T14:01:45.438Z,41.76
2023-04-20T14:04:12.279Z,41.69
2023-04-20T14:06:38.931Z,41.19
2023-04-20T14:09:05.497Z,41.15
2023-04-20T14:11:31.985Z,40.32
2023-04-20T14:13:58.541Z,40.43
2023-04-20T14:16:25.886Z,41.08
2023-04-20T14:18:52.474Z,41.24
2023-04-20T14:21:18.986Z,40.88
2023-04-20T14:23:45.719Z,40.29
2023-04-20T14:26:12.201Z,40.79
2023-04-20T14:28:38.986Z,39.58
2023-04-20T14:31:05.622Z,40.04
2023-04-20T14:33:32.150Z,40.34
2023-04-20T14:35:58.793Z,39.39
2023-04-20T14:38:25.330Z,39.45
2023-04-20T14:40:52.402Z,39.09
2023-04-20T14:43:18.938Z,39.04
2023-04-20T14:45:46.644Z,38.98
2023-04-20T14:48:13.281Z,38.83
2023-04-20T14:50:39.752Z,39.25
2023-04-20T14:53:06.270Z,39.00
2023-04-20T14:55:32.808Z,38.77
2023-04-20T14:57:59.441Z,38.59
2023-04-20T15:00:28.268Z,37.96
2023-04-20T15:02:59.680Z,37.86
2023-04-20T15:05:27.587Z,37.46
2023-04-20T15:07:54.281Z,37.80
2023-04-20T15:10:21.549Z,36.45
2023-04-20T15:12:48.727Z,37.38
2023-04-20T15:15:16.442Z,38.00
2023-04-20T15:17:43.299Z,38.61
2023-04-20T15:20:10.306Z,38.17
2023-04-20T15:22:36.970Z,37.85
2023-04-20T15:25:04.557Z,37.93
2023-04-20T15:27:31.180Z,38.14
2023-04-20T15:30:00.824Z,38.96
2023-04-20T15:32:27.616Z,40.21
2023-04-20T15:34:54.190Z,41.78
2023-04-20T15:37:20.830Z,42.82
2023-04-20T15:39:47.419Z,43.48
2023-04-20T15:42:14.028Z,44.13
2023-04-20T15:44:41.393Z,43.86
2023-04-20T15:47:07.960Z,44.92
2023-04-20T15:49:37.236Z,44.59
2023-04-20T15:52:04.513Z,44.40
2023-04-20T15:54:31.028Z,45.67
2023-04-20T15:56:57.511Z,45.11
2023-04-20T15:59:24.006Z,45.80
2023-04-20T16:01:50.656Z,44.99
2023-04-20T16:04:17.895Z,45.06
2023-04-20T16:06:44.920Z,45.27
2023-04-20T16:09:11.452Z,45.90
2023-04-20T16:11:39.799Z,45.37
2023-04-20T16:14:06.380Z,46.67
2023-04-20T16:16:33.344Z,46.37
2023-04-20T16:18:59.921Z,46.71
2023-04-20T16:21:26.929Z,47.06
2023-04-20T16:23:56.549Z,47.36
2023-04-20T16:26:26.087Z,48.60
2023-04-20T16:28:53.640Z,48.85
2023-04-20T16:31:22.623Z,48.19
2023-04-20T16:33:49.216Z,48.50
2023-04-20T16:36:18.642Z,49.40
2023-04-20T16:38:45.146Z,48.58
2023-04-20T16:41:11.601Z,48.82
2023-04-20T16:43:38.218Z,49.03
2023-04-20T16:46:04.723Z,49.91
2023-04-20T16:48:31.860Z,49.65
2023-04-20T16:50:58.406Z,50.60
2023-04-20T16:53:25.825Z,50.36
2023-04-20T16:55:52.371Z,51.03
2023-04-20T16:58:18.935Z,50.86
2023-04-20T17:00:45.561Z,50.99
2023-04-20T17:03:13.570Z,51.20
2023-04-20T17:05:42.101Z,51.15
2023-04-20T17:08:09.769Z,50.54
2023-04-20T17:10:39.312Z,50.84
2023-04-20T17:13:05.879Z,51.74
2023-04-20T17:15:32.503Z,52.60
2023-04-20T17:17:59.481Z,51.37
2023-04-20T17:20:26.266Z,52.17
2023-04-20T17:22:52.841Z,52.21
2023-04-20T17:25:19.458Z,52.48
2023-04-20T17:27:46.088Z,53.18
2023-04-20T17:30:13.430Z,54.00
2023-04-20T17:32:40.196Z,54.24
2023-04-20T17:35:07.017Z,54.41
2023-04-20T17:37:35.325Z,53.77
2023-04-20T17:40:02.848Z,54.57
2023-04-20T17:42:29.455Z,54.55
2023-04-20T17:44:56.185Z,54.13
2023-04-20T17:47:22.752Z,53.84
2023-04-20T17:49:49.501Z,53.53
2023-04-20T17:52:19.368Z,53.57
2023-04-20T17:54:46.086Z,53.67
2023-04-20T17:57:13.992Z,53.43
2023-04-20T17:59:42.298Z,52.93
2023-04-20T18:02:09.234Z,53.14
2023-04-20T18:04:36.309Z,53.35
2023-04-20T18:07:03.719Z,53.19
2023-04-20T18:09:32.439Z,52.98
2023-04-20T18:11:58.924Z,52.88
2023-04-20T18:14:25.524Z,53.04
2023-04-20T18:16:53.858Z,53.42
2023-04-20T18:19:20.588Z,53.85
2023-04-20T18:21:47.031Z,54.51
2023-04-20T18:24:13.523Z,54.90
2023-04-20T18:26:40.180Z,54.38
2023-04-20T18:29:06.881Z,53.92
2023-04-20T18:31:33.709Z,53.76
2023-04-20T18:34:00.340Z,54.64
2023-04-20T18:36:26.894Z,54.88
2023-04-20T18:38:54.008Z,54.86
2023-04-20T18:41:22.536Z,54.28
2023-04-20T18:43:52.223Z,55.01
2023-04-20T18:46:18.788Z,54.16
2023-04-20T18:48:45.309Z,54.33
2023-04-20T18:51:11.876Z,54.79
2023-04-20T18:53:39.603Z,54.33
2023-04-20T18:56:06.842Z,54.17
2023-04-20T18:58:37.179Z,53.98
2023-04-20T19:01:04.349Z,54.09
2023-04-20T19:03:33.237Z,54.66
2023-04-20T19:05:59.852Z,54.42
2023-04-20T19:08:26.394Z,54.28
2023-04-20T19:10:56.400Z,54.35
2023-04-20T19:13:23.726Z,55.00
2023-04-20T19:15:55.130Z,55.25
2023-04-20T19:18:21.712Z,55.88
2023-04-20T19:20:48.572Z,55.95
2023-04-20T19:23:15.396Z,56.67
2023-04-20T19:25:41.863Z,56.65
2023-04-20T19:28:08.320Z,56.96
2023-04-20T19:30:36.216Z,57.04
2023-04-20T19:33:05.043Z,57.00
2023-04-20T19:35:32.333Z,57.30
2023-04-20T19:37:59.592Z,57.30
2023-04-20T19:40:27.040Z,57.65
2023-04-20T19:42:53.636Z,57.61
2023-04-20T19:45:20.201Z,58.60
2023-04-20T19:47:46.801Z,58.01
2023-04-20T19:50:14.261Z,58.47
2023-04-20T19:52:40.799Z,57.83
2023-04-20T19:55:07.829Z,59.07
2023-04-20T19:57:34.272Z,58.31
2023-04-20T20:00:00.869Z,59.26
2023-04-20T20:02:27.510Z,59.08
2023-04-20T20:04:54.667Z,59.39
2023-04-20T20:07:21.213Z,58.92
2023-04-20T20:09:47.908Z,59.54
2023-04-20T20:12:14.488Z,60.27
2023-04-20T20:14:41.115Z,60.53
2023-04-20T20:17:07.669Z,60.51
2023-04-20T20:19:34.155Z,60.79
2023-04-20T20:22:00.591Z,60.71
2023-04-20T20:24:27.732Z,60.23
2023-04-20T20:26:54.229Z,59.82
2023-04-20T20:29:22.759Z,61.14
2023-04-20T20:31:49.339Z,61.60
2023-04-20T20:34:15.928Z,61.02
2023-04-20T20:36:44.623Z,60.78
2023-04-20T20:39:12.533Z,61.42
2023-04-20T20:41:42.588Z,62.06
2023-04-20T20:44:10.330Z,61.80
2023-04-20T20:46:38.404Z,61.47
2023-04-20T20:49:05.390Z,61.00
2023-04-20T20:51:32.074Z,60.53
2023-04-20T20:53:58.911Z,60.64
2023-04-20T20:56:25.693Z,60.96
2023-04-20T20:58:53.957Z,60.60
2023-04-20T21:01:20.974Z,60.66
2023-04-20T21:03:50.049Z,61.49
2023-04-20T21:06:17.910Z,61.68
2023-04-20T21:08:44.533Z,62.06
2023-04-20T21:11:11.031Z,61.23
2023-04-20T21:13:37.518Z,61.61
2023-04-20T21:16:04.091Z,61.62
2023-04-20T21:18:30.894Z,61.63
2023-04-20T21:20:57.385Z,61.89
2023-04-20T21:23:23.829Z,62.66
2023-04-20T21:25:50.501Z,62.95
2023-04-20T21:28:16.977Z,62.50
2023-04-20T21:30:43.425Z,63.40
2023-04-20T21:33:09.893Z,63.63
2023-04-20T21:35:36.364Z,63.19
2023-04-20T21:38:04.629Z,63.17
2023-04-20T21:40:31.121Z,63.19
2023-04-20T21:42:57.566Z,62.65
2023-04-20T21:45:24.001Z,62.99
2023-04-20T21:47:50.470Z,63.28
2023-04-20T21:50:17.066Z,63.85
2023-04-20T21:52:43.524Z,63.48
2023-04-20T21:55:10.496Z,63.58
2023-04-20T21:57:36.952Z,63.42
2023-04-20T22:00:04.310Z,63.30
2023-04-20T22:02:30.927Z,63.97
2023-04-20T22:04:57.896Z,63.55
2023-04-20T22:07:26.552Z,63.57
2023-04-20T22:09:53.110Z,63.06
2023-04-20T22:12:32.124Z,63.32
2023-04-20T22:15:10.632Z,63.46
2023-04-20T22:17:37.759Z,63.26
2023-04-20T22:20:07.871Z,62.81
2023-04-20T22:22:35.493Z,63.08
2023-04-20T22:25:04.498Z,62.98
2023-04-20T22:27:32.455Z,62.57
2023-04-20T22:29:59.059Z,63.37
2023-04-20T22:32:25.589Z,64.18
2023-04-20T22:34:52.081Z,64.13
2023-04-20T22:37:18.761Z,63.49
2023-04-20T22:39:45.227Z,63.43
2023-04-20T22:42:11.697Z,63.85
2023-04-20T22:44:38.300Z,63.22
2023-04-20T22:47:04.951Z,62.83
2023-04-20T22:49:31.925Z,62.69
2023-04-20T22:51:58.583Z,63.20
2023-04-20T22:54:25.407Z,63.67
2023-04-20T22:56:52.032Z,63.18
2023-04-20T22:59:19.770Z,63.29
2023-04-20T23:01:46.658Z,64.01
2023-04-20T23:04:13.346Z,64.50
2023-04-20T23:06:43.775Z,64.46
2023-04-20T23:09:12.444Z,64.19
2023-04-20T23:11:40.048Z,64.50
2023-04-20T23:14:08.664Z,64.78
2023-04-20T23:16:35.960Z,65.06
2023-04-20T23:19:02.458Z,64.24
2023-04-20T23:21:29.112Z,64.21
2023-04-20T23:23:57.554Z,63.95
2023-04-20T23:26:24.945Z,63.66
2023-04-20T23:28:53.085Z,63.56
2023-04-20T23:31:20.496Z,63.49
2023-04-20T23:33:48.087Z,63.41
2023-04-20T23:36:15.225Z,63.94
2023-04-20T23:38:42.380Z,64.28
2023-04-20T23:41:14.231Z,63.82
2023-04-20T23:43:41.738Z,64.00
2023-04-20T23:46:09.232Z,63.51
2023-04-20T23:48:35.766Z,64.05
2023-04-20T23:51:02.423Z,64.92
2023-04-20T23:53:28.986Z,65.22
2023-04-20T23:55:55.616Z,64.46
2023-04-20T23:58:27.333Z,64.11
